• Join FlightAware (Why Join?)
  • Login
  • US Flag 
 
08:54PM EST


 

Airport Tracker/Info


-or-


 

Live Flight TrackerFlight Track Log ✈ JBU1329 ✈ 02-May-2013 ✈ KBOS - KBWI

Flight Track Log - Related Links

Times and Time Zones

All times are in EDT time to prevent confusion due to time zone crossing. See the JBU1329 flight status page for this flight to view local times or setup timezone preferences in your user account.

Time Position Orientation Groundspeed Altitude Reporting Facility
EDT Latitude Longitude Course Direction KTS MPH feet Rate Location/Type
09:25AM 42.3833 -71.0000 262° West 150 173 800  Level KA90
09:25AM 42.4000 -70.9833 36° Northeast 155 178 2,000 2,400 Climbing KA90
09:26AM 42.4500 -70.9500 26° Northeast 228 262 4,400 3,120 Climbing KA90
09:28AM 42.2805 -70.7459 228° Southwest  Level FlightAware Approximate
09:28AM 42.4364 -70.7858 96° East 261 300 10,900  Level Boston Center
09:29AM 42.2180 -70.8526 240° Southwest  Level FlightAware Approximate
09:29AM 42.3525 -70.7656 170° South 232 267 13,000  Level Boston Center
09:30AM 42.1824 -70.9765 262° West  Level FlightAware Approximate
09:30AM 42.3169 -70.8903 249° West 206 237 15,900  Level Boston Center
09:31AM 42.2894 -71.0283 255° West 292 336 18,200 2,040 Climbing Boston Center
09:32AM 42.2581 -71.1833 255° West 368 423 20,000 2,100 Climbing Boston Center
09:33AM 42.2283 -71.3356 255° West 407 468 22,500 2,280 Climbing Boston Center
09:34AM 42.1942 -71.4928 254° West 431 496 24,600 1,860 Climbing Boston Center
09:35AM 42.1392 -71.6281 241° Southwest 445 512 26,300 1,680 Climbing Boston Center
09:36AM 42.0714 -71.7942 241° Southwest 452 520 28,000 1,500 Climbing Boston Center
09:37AM 42.0033 -71.9456 239° Southwest 468 539 29,300 1,440 Climbing Boston Center
09:38AM 41.9350 -72.0997 239° Southwest 475 547 30,900 1,320 Climbing Boston Center
09:39AM 41.8689 -72.2589 241° Southwest 486 559 32,000 540 Climbing Boston Center
09:40AM 41.8003 -72.4122 239° Southwest 486 559 32,000  Level Boston Center
09:41AM 41.7314 -72.5736 240° Southwest 496 571 32,000  Level Boston Center
09:42AM 41.6622 -72.7292 239° Southwest 496 571 32,000  Level Boston Center
09:43AM 41.5931 -72.8869 240° Southwest 496 571 32,000  Level Boston Center
09:44AM 41.5339 -73.0253 240° Southwest 489 563 32,000  Level Boston Center
09:45AM 41.4644 -73.1797 239° Southwest 484 557 32,000 -300 Level Boston Center
09:46AM 41.3944 -73.3367 239° Southwest 489 563 31,400 -1,260 Descending Boston Center
09:48AM 41.2300 -73.6789 238° Southwest 499 574 28,000 -1,080 Descending New York Center
09:49AM 41.1431 -73.8156 230° Southwest 499 574 28,000  Level New York Center
09:50AM 41.0603 -73.9578 232° Southwest 492 566 28,000  Level New York Center
09:51AM 40.9858 -74.0861 232° Southwest 492 566 28,000  Level New York Center
09:52AM 40.8833 -74.2514 231° Southwest 498 573 28,000  Level New York Center
09:53AM 40.8000 -74.3842 230° Southwest 492 566 28,000  Level New York Center
09:54AM 40.7144 -74.5219 231° Southwest 487 560 28,000 -300 Level New York Center
09:55AM 40.6331 -74.6597 232° Southwest 487 560 27,500 -1,500 Descending New York Center
09:56AM 40.5675 -74.8089 240° Southwest 487 560 25,100 -2,460 Descending New York Center
09:57AM 40.5042 -74.9525 240° Southwest 467 537 22,700 -2,400 Descending New York Center
09:58AM 40.4450 -75.0908 241° Southwest 450 518 20,300 -1,980 Descending New York Center
09:59AM 40.3900 -75.2236 241° Southwest 438 504 18,800 -1,200 Descending New York Center
10:00AM 40.3308 -75.3586 240° Southwest 426 490 18,000 -420 Descending New York Center
10:01AM 40.2425 -75.4317 212° Southwest 405 466 18,000  Level New York Center
10:02AM 40.1306 -75.5164 210° Southwest 425 489 18,000  Level New York Center
10:03AM 40.0403 -75.5836 210° Southwest 432 497 18,000  Level New York Center
10:04AM 39.9328 -75.6656 210° Southwest 425 489 18,000 -60 Level New York Center
10:05AM 39.8681 -75.7692 231° Southwest 409 471 17,900 -1,440 Descending New York Center
10:07AM 39.7333 -76.0167 235° Southwest 359 413 13,600 -1,920 Descending Potomac TRACON
10:08AM 39.6833 -76.1167 237° Southwest 321 369 12,000 -1,080 Descending Potomac TRACON
10:09AM 39.6333 -76.2167 237° Southwest 310 357 11,500 -540 Descending Potomac TRACON
10:10AM 39.6000 -76.3000 243° Southwest 306 352 11,000 -600 Descending Potomac TRACON
10:11AM 39.5500 -76.4000 237° Southwest 305 351 10,300 -1,020 Descending Potomac TRACON
10:12AM 39.5000 -76.5000 237° Southwest 298 343 9,000 -1,080 Descending Potomac TRACON
10:13AM 39.4500 -76.5833 232° Southwest 294 338 8,200 -1,020 Descending Potomac TRACON
10:14AM 39.4167 -76.6833 247° West 293 337 7,000 -720 Descending Potomac TRACON
10:15AM 39.3833 -76.7667 243° Southwest 293 337 6,800 -900 Descending Potomac TRACON
10:16AM 39.3333 -76.8500 232° Southwest 285 328 5,200 -1,500 Descending Potomac TRACON
10:17AM 39.2833 -76.9000 218° Southwest 251 289 3,800 -1,320 Descending Potomac TRACON
10:18AM 39.2167 -76.9000 180° South 220 253 2,600 -900 Descending Potomac TRACON
10:19AM 39.1833 -76.8500 131° Southeast 173 199 2,000 -360 Descending Potomac TRACON
10:20AM 39.1833 -76.8000 90° East 141 162 1,900 -420 Descending Potomac TRACON
10:21AM 39.1833 -76.7500 90° East 122 140 1,200 -720 Descending Potomac TRACON
10:22AM 39.1833 -76.7167 90° East 125 144 500 -720 Descending Potomac TRACON